Pagrindinis puslapis
METAR-TAF:

METAR-TAF

Oro uostai :

Jonšiopingas, Švedija

platuma: 57-46N, ilguma: 014-05E, Aukštis: 226 m

Dabartinis oras

Ataskaita buvo paskelbta 29 minutes, ne 02:20 UTC
Vėjas 10 kt iš Pietų/Pietvakarių
Temperatūra 0°C
Drėgmė 93%
Slėgis 1015 hPa
Matomumas 10 km arba daugiau

METAR: ESGJ 280220Z AUTO 21010KT 9999 BKN009/// OVC012/// M00/M01 Q1015

Laikas: 03:49 (02:49 UTC)

Prognozė

Ataskaita buvo paskelbta 3 valandos ir 19 minutes, ne 23:30 UTC
Prognozė galioja nuo 28 metu 00 UTC su 28 metu 02 UTC
Vėjas 4 kt iš Pietų/Pietvakarių
Matomumas 10 km arba daugiau
Išsisklaidę debesys ne aukštis 1000 ft
Su prošvaistėmis ne aukštis 2000 ft
Tikimybė 40%
nuo 28 metu 00 UTC su 28 metu 02 UTC
Su prošvaistėmis ne aukštis 900 ft

TAF: ESGJ 272330Z 2800/2802 20004KT 9999 SCT010 BKN020 PROB40 2800/2802 BKN009

Orai ataskaitas ir orų prognozės (METAR, TAF).

turimą stotys yra geltonos ir raudonos taškus žemėlapyje.

Perkelti pele per norėdami pamatyti stoties vardą.

Tada spustelėkite, norėdami matyti oro stebėjimo ir prognozės.

Norėdami pakeisti žemėlapį: spustelėkite ant žalios mygtukų su juodo kryžiaus žemyn,; žalią mygtuką su brūkšneliu, jei norite nutolinti; arba žalių rodyklių gretimoms žemėlapius.


METAR-TAF: